createdAt,value
2023-03-06T00:00:16.137Z,20.40
2023-03-06T00:03:18.545Z,20.40
2023-03-06T00:06:20.507Z,20.30
2023-03-06T00:09:21.878Z,20.50
2023-03-06T00:12:23.477Z,20.50
2023-03-06T00:15:25.987Z,20.50
2023-03-06T00:18:28.147Z,20.40
2023-03-06T00:21:29.554Z,20.10
2023-03-06T00:24:30.908Z,20.50
2023-03-06T00:27:33.303Z,20.40
2023-03-06T00:30:35.396Z,20.40
2023-03-06T00:33:37.540Z,20.30
2023-03-06T00:36:38.937Z,20.30
2023-03-06T00:39:41.578Z,20.50
2023-03-06T00:42:43.229Z,20.20
2023-03-06T00:45:44.639Z,20.10
2023-03-06T00:48:46.807Z,20.40
2023-03-06T00:51:48.174Z,20.30
2023-03-06T00:54:49.656Z,20.10
2023-03-06T00:57:51.216Z,19.90
2023-03-06T01:00:53.658Z,20.40
2023-03-06T01:03:55.709Z,20.30
2023-03-06T01:06:57.119Z,20.30
2023-03-06T01:10:00.478Z,20.30
2023-03-06T01:13:02.012Z,20.50
2023-03-06T01:16:05.440Z,20.30
2023-03-06T01:19:07.553Z,20.30
2023-03-06T01:22:10.146Z,20.30
2023-03-06T01:25:12.761Z,20.20
2023-03-06T01:28:14.158Z,20.30
2023-03-06T01:31:18.401Z,20.30
2023-03-06T01:34:20.513Z,20.40
2023-03-06T01:37:21.904Z,20.30
2023-03-06T01:40:23.329Z,20.00
2023-03-06T01:43:28.900Z,20.50
2023-03-06T01:46:37.977Z,20.10
2023-03-06T01:49:41.563Z,20.10
2023-03-06T01:52:47.050Z,20.40
2023-03-06T01:55:48.436Z,20.20
2023-03-06T01:58:51.513Z,20.10
2023-03-06T02:01:54.641Z,20.40
2023-03-06T02:04:58.913Z,20.10
2023-03-06T02:08:01.743Z,20.00
2023-03-06T02:11:11.884Z,20.40
2023-03-06T02:14:16.027Z,20.40
2023-03-06T02:17:20.988Z,20.20
2023-03-06T02:20:30.583Z,20.30
2023-03-06T02:23:47.033Z,20.10
2023-03-06T02:26:49.818Z,20.20
2023-03-06T02:29:51.380Z,20.10
2023-03-06T02:32:52.747Z,20.10
2023-03-06T02:35:57.082Z,20.00
2023-03-06T02:38:59.137Z,20.30
2023-03-06T02:42:01.813Z,20.30
2023-03-06T02:45:09.437Z,20.30
2023-03-06T02:48:11.831Z,20.30
2023-03-06T02:51:13.762Z,20.00
2023-03-06T02:54:17.492Z,20.10
2023-03-06T02:57:19.577Z,20.30
2023-03-06T03:00:21.562Z,20.30
2023-03-06T03:03:24.362Z,20.00
2023-03-06T03:06:28.942Z,20.30
2023-03-06T03:09:35.904Z,20.30
2023-03-06T03:12:39.383Z,20.30
2023-03-06T03:15:41.166Z,20.20
2023-03-06T03:18:43.730Z,20.10
2023-03-06T03:21:46.339Z,20.30
2023-03-06T03:24:47.933Z,20.20
2023-03-06T03:27:50.056Z,20.40
2023-03-06T03:30:51.662Z,20.30
2023-03-06T03:33:53.198Z,20.00
2023-03-06T03:36:56.536Z,20.20
2023-03-06T03:40:00.024Z,20.20
2023-03-06T03:43:02.217Z,20.30
2023-03-06T03:46:05.294Z,20.30
2023-03-06T03:49:07.119Z,20.00
2023-03-06T03:52:08.933Z,20.20
2023-03-06T03:55:12.065Z,20.20
2023-03-06T03:58:17.688Z,19.90
2023-03-06T04:01:19.755Z,20.30
2023-03-06T04:04:21.102Z,20.30
2023-03-06T04:07:22.584Z,19.80
2023-03-06T04:10:24.501Z,20.10
2023-03-06T04:13:26.601Z,20.00
2023-03-06T04:16:28.371Z,19.90
2023-03-06T04:19:30.312Z,20.00
2023-03-06T04:22:32.498Z,19.80
2023-03-06T04:25:34.697Z,20.20
2023-03-06T04:28:38.606Z,20.10
2023-03-06T04:31:40.438Z,19.90
2023-03-06T04:34:42.055Z,19.90
2023-03-06T04:37:43.449Z,20.30
2023-03-06T04:40:45.216Z,20.30
2023-03-06T04:43:50.145Z,20.20
2023-03-06T04:46:54.187Z,20.20
2023-03-06T04:49:55.561Z,20.00
2023-03-06T04:52:57.008Z,20.20
2023-03-06T04:55:58.599Z,19.90
2023-03-06T04:59:01.408Z,20.00
2023-03-06T05:02:03.128Z,19.90
2023-03-06T05:05:07.819Z,19.90
2023-03-06T05:08:14.396Z,19.90
2023-03-06T05:11:19.310Z,20.00
2023-03-06T05:14:22.429Z,19.90
2023-03-06T05:17:25.325Z,20.00
2023-03-06T05:20:27.838Z,20.00
2023-03-06T05:23:33.784Z,20.00
2023-03-06T05:26:35.141Z,20.30
2023-03-06T05:29:37.136Z,20.00
2023-03-06T05:32:38.643Z,20.20
2023-03-06T05:35:45.350Z,20.20
2023-03-06T05:38:46.771Z,20.10
2023-03-06T05:41:51.247Z,20.20
2023-03-06T05:44:54.511Z,19.80
2023-03-06T05:47:56.306Z,19.90
2023-03-06T05:50:58.275Z,20.10
2023-03-06T05:53:59.770Z,20.30
2023-03-06T05:57:01.033Z,20.20
2023-03-06T06:00:03.584Z,19.80
2023-03-06T06:03:13.972Z,19.80
2023-03-06T06:06:15.421Z,20.10
2023-03-06T06:09:16.812Z,19.80
2023-03-06T06:12:20.586Z,19.90
2023-03-06T06:15:22.556Z,20.00
2023-03-06T06:18:24.097Z,20.20
2023-03-06T06:21:25.317Z,19.80
2023-03-06T06:24:26.802Z,20.20
2023-03-06T06:27:28.045Z,20.00
2023-03-06T06:30:30.068Z,19.80
2023-03-06T06:33:31.466Z,19.80
2023-03-06T06:36:33.292Z,19.90
2023-03-06T06:39:34.679Z,19.90
2023-03-06T06:42:39.915Z,19.80
2023-03-06T06:45:43.397Z,20.00
2023-03-06T06:48:47.660Z,19.80
2023-03-06T06:51:49.054Z,20.00
2023-03-06T06:54:50.986Z,20.30
2023-03-06T06:57:52.407Z,20.20
2023-03-06T07:00:54.490Z,20.10
2023-03-06T07:03:56.469Z,19.90
2023-03-06T07:06:58.411Z,19.90
2023-03-06T07:09:59.841Z,20.20
2023-03-06T07:13:02.191Z,20.10
2023-03-06T07:16:04.688Z,20.20
2023-03-06T07:19:06.691Z,20.00
2023-03-06T07:22:10.955Z,20.30
2023-03-06T07:25:12.606Z,20.10
2023-03-06T07:28:16.093Z,20.00
2023-03-06T07:31:25.521Z,20.40
2023-03-06T07:34:27.040Z,20.40
2023-03-06T07:37:31.608Z,20.10
2023-03-06T07:40:33.165Z,20.50
2023-03-06T07:43:34.441Z,20.40
2023-03-06T07:46:38.595Z,20.70
2023-03-06T07:49:40.257Z,20.10
2023-03-06T07:57:34.918Z,20.50
2023-03-06T08:00:36.238Z,20.60
2023-03-06T08:03:41.520Z,20.80
2023-03-06T08:06:42.964Z,20.30
2023-03-06T08:09:44.385Z,20.60
2023-03-06T08:12:45.781Z,20.50
2023-03-06T08:15:48.592Z,20.40
2023-03-06T08:18:52.989Z,20.60
2023-03-06T08:21:54.586Z,20.40
2023-03-06T08:24:57.681Z,20.50
2023-03-06T08:28:00.962Z,20.70
2023-03-06T08:31:10.079Z,20.80
2023-03-06T08:34:14.514Z,20.60
2023-03-06T08:37:16.146Z,20.60
2023-03-06T08:40:17.953Z,20.80
2023-03-06T08:43:22.636Z,20.80
2023-03-06T08:46:26.384Z,20.50
2023-03-06T08:49:31.384Z,20.80
2023-03-06T08:52:35.059Z,20.70
2023-03-06T08:55:36.490Z,20.70
2023-03-06T08:58:37.929Z,21.00
2023-03-06T09:01:39.497Z,20.60
2023-03-06T09:04:41.718Z,21.00
2023-03-06T09:07:43.239Z,21.00
2023-03-06T09:10:45.718Z,21.20
2023-03-06T09:13:47.507Z,20.90
2023-03-06T09:16:48.929Z,20.90
2023-03-06T09:19:51.692Z,20.80
2023-03-06T09:22:55.770Z,21.10
2023-03-06T09:25:59.340Z,21.00
2023-03-06T09:29:04.364Z,21.00
2023-03-06T09:32:06.266Z,21.20
2023-03-06T09:35:09.982Z,21.10
2023-03-06T09:38:11.493Z,20.90
2023-03-06T09:41:19.600Z,21.10
2023-03-06T09:44:25.481Z,21.00
2023-03-06T09:47:42.295Z,20.90
2023-03-06T09:50:48.759Z,21.20
2023-03-06T09:53:58.804Z,20.90
2023-03-06T09:57:01.554Z,20.90
2023-03-06T10:00:06.385Z,20.90
2023-03-06T10:03:21.151Z,20.90
2023-03-06T10:06:29.203Z,21.20
2023-03-06T10:09:39.694Z,20.90
2023-03-06T10:12:47.605Z,21.20
2023-03-06T10:15:54.222Z,21.10
2023-03-06T10:19:00.174Z,21.10
2023-03-06T10:22:09.566Z,21.20
2023-03-06T10:25:20.589Z,21.00
2023-03-06T10:28:28.199Z,21.20
2023-03-06T10:31:31.648Z,21.30
2023-03-06T10:34:38.546Z,21.20
2023-03-06T10:37:40.813Z,21.10
2023-03-06T10:40:48.456Z,21.30
2023-03-06T10:44:15.169Z,21.20
2023-03-06T10:47:34.381Z,21.30
2023-03-06T10:50:36.071Z,21.30
2023-03-06T10:53:49.945Z,21.40
2023-03-06T10:56:51.712Z,21.30
2023-03-06T10:59:57.199Z,21.30
2023-03-06T11:03:18.064Z,21.20
2023-03-06T11:06:33.781Z,21.40
2023-03-06T11:09:36.297Z,21.40
2023-03-06T11:12:38.995Z,21.50
2023-03-06T11:15:54.419Z,21.40
2023-03-06T11:18:57.506Z,21.40
2023-03-06T11:22:01.802Z,21.50
2023-03-06T11:25:04.531Z,21.50
2023-03-06T11:28:12.392Z,21.50
2023-03-06T11:31:20.682Z,21.40
2023-03-06T11:34:36.144Z,21.50
2023-03-06T11:37:44.992Z,21.30
2023-03-06T11:40:52.472Z,21.40
2023-03-06T11:44:00.274Z,21.30
2023-03-06T11:47:09.430Z,21.40
2023-03-06T11:50:21.109Z,21.30
2023-03-06T11:53:30.043Z,21.50
2023-03-06T11:56:39.625Z,21.60
2023-03-06T12:00:12.740Z,21.40
2023-03-06T12:03:41.292Z,21.50
2023-03-06T12:06:49.929Z,21.50
2023-03-06T12:09:59.549Z,21.60
2023-03-06T12:13:20.073Z,21.30
2023-03-06T12:16:34.345Z,21.30
2023-03-06T12:19:49.261Z,21.50
2023-03-06T12:22:58.024Z,21.00
2023-03-06T12:26:28.850Z,21.50
2023-03-06T12:29:43.972Z,21.30
2023-03-06T12:32:52.309Z,21.40
2023-03-06T12:36:02.723Z,21.40
2023-03-06T12:39:10.520Z,21.40
2023-03-06T12:42:28.641Z,21.30
2023-03-06T12:45:32.518Z,21.40
2023-03-06T12:48:36.834Z,21.50
2023-03-06T12:51:39.131Z,21.30
2023-03-06T12:54:41.244Z,21.40
2023-03-06T12:57:42.980Z,21.40
2023-03-06T13:01:03.682Z,21.40
2023-03-06T13:04:26.544Z,21.50
2023-03-06T13:07:42.993Z,21.30
2023-03-06T13:11:00.593Z,21.50
2023-03-06T13:14:23.689Z,21.40
2023-03-06T13:17:34.455Z,21.40
2023-03-06T13:20:42.277Z,21.60
2023-03-06T13:23:51.013Z,21.50
2023-03-06T13:26:59.294Z,21.40
2023-03-06T13:30:21.448Z,21.40
2023-03-06T13:33:50.272Z,21.40
2023-03-06T13:36:52.509Z,21.50
2023-03-06T13:40:13.446Z,21.50
2023-03-06T13:43:21.153Z,21.40
2023-03-06T13:46:26.403Z,21.30
2023-03-06T13:49:33.064Z,21.50
2023-03-06T13:52:45.364Z,21.50
2023-03-06T13:55:58.700Z,21.40
2023-03-06T13:59:25.046Z,21.50
2023-03-06T14:02:50.980Z,21.30
2023-03-06T14:05:52.728Z,21.50
2023-03-06T14:08:55.350Z,21.50
2023-03-06T14:12:05.842Z,21.40
2023-03-06T14:15:23.054Z,21.50
2023-03-06T14:18:27.495Z,21.30
2023-03-06T14:21:31.249Z,21.50
2023-03-06T14:24:37.597Z,21.40
2023-03-06T14:27:44.655Z,21.40
2023-03-06T14:30:50.250Z,21.50
2023-03-06T14:33:57.611Z,21.50
2023-03-06T14:37:01.905Z,21.50
2023-03-06T14:40:10.741Z,21.50
2023-03-06T14:43:19.111Z,21.40
2023-03-06T14:46:22.035Z,21.30
2023-03-06T14:49:25.645Z,21.50
2023-03-06T14:52:30.571Z,21.50
2023-03-06T14:55:34.928Z,21.30
2023-03-06T14:58:41.198Z,21.40
2023-03-06T15:01:46.705Z,21.50
2023-03-06T15:04:51.096Z,21.20
2023-03-06T15:07:53.739Z,21.40
2023-03-06T15:11:01.178Z,21.40
2023-03-06T15:14:04.081Z,21.30
2023-03-06T15:17:24.822Z,21.50
2023-03-06T15:20:42.922Z,21.60
2023-03-06T15:23:47.937Z,21.60
2023-03-06T15:26:54.855Z,21.70
2023-03-06T15:30:11.335Z,21.60
2023-03-06T15:33:23.336Z,21.50
2023-03-06T15:36:28.850Z,21.50
2023-03-06T15:39:36.131Z,21.40
2023-03-06T15:42:38.345Z,21.40
2023-03-06T15:45:39.775Z,21.70
2023-03-06T15:48:51.193Z,21.40
2023-03-06T15:51:52.610Z,21.50
2023-03-06T15:54:54.167Z,21.60
2023-03-06T15:58:01.547Z,21.60
2023-03-06T16:01:03.225Z,21.40
2023-03-06T16:04:04.733Z,21.50
2023-03-06T16:07:06.039Z,21.60
2023-03-06T16:10:11.777Z,21.50
2023-03-06T16:13:18.957Z,21.30
2023-03-06T16:16:28.422Z,21.40
2023-03-06T16:19:30.054Z,21.40
2023-03-06T16:22:31.465Z,21.50
2023-03-06T16:25:33.784Z,21.40
2023-03-06T16:28:39.764Z,21.50
2023-03-06T16:31:41.256Z,21.50
2023-03-06T16:34:42.504Z,21.50
2023-03-06T16:37:45.056Z,21.30
2023-03-06T16:40:46.454Z,21.50
2023-03-06T16:43:48.735Z,21.60
2023-03-06T16:46:50.657Z,21.40
2023-03-06T16:49:57.008Z,21.60
2023-03-06T16:52:59.105Z,21.60
2023-03-06T16:56:00.517Z,21.60
2023-03-06T16:59:02.594Z,21.60
2023-03-06T17:02:04.242Z,21.60
2023-03-06T17:05:07.456Z,21.50
2023-03-06T17:08:08.984Z,21.70
2023-03-06T17:11:10.600Z,21.70
2023-03-06T17:14:12.817Z,21.60
2023-03-06T17:17:16.312Z,21.60
2023-03-06T17:20:18.987Z,21.80
2023-03-06T17:23:21.940Z,21.50
2023-03-06T17:26:23.418Z,21.50
2023-03-06T17:29:25.717Z,21.70
2023-03-06T17:32:27.645Z,21.50
2023-03-06T17:35:29.131Z,21.70
2023-03-06T17:38:30.881Z,21.60
2023-03-06T17:41:33.311Z,21.60
2023-03-06T17:44:36.928Z,21.80
2023-03-06T17:47:38.333Z,21.50
2023-03-06T17:50:39.833Z,21.60
2023-03-06T17:53:42.590Z,21.70
2023-03-06T17:56:44.628Z,21.50
2023-03-06T17:59:47.952Z,21.50
2023-03-06T18:02:49.633Z,21.50
2023-03-06T18:06:01.782Z,21.40
2023-03-06T18:09:04.245Z,21.60
2023-03-06T18:12:07.066Z,21.40
2023-03-06T18:15:10.006Z,21.40
2023-03-06T18:18:11.407Z,21.40
2023-03-06T18:21:15.636Z,21.20
2023-03-06T18:24:19.528Z,21.50
2023-03-06T18:27:21.074Z,21.40
2023-03-06T18:30:23.080Z,21.50
2023-03-06T18:33:26.122Z,21.30
2023-03-06T18:36:29.697Z,21.30
2023-03-06T18:39:31.142Z,21.30
2023-03-06T18:42:32.429Z,21.20
2023-03-06T18:45:34.674Z,21.40
2023-03-06T18:48:36.618Z,21.30
2023-03-06T18:51:38.424Z,21.30
2023-03-06T18:54:39.952Z,21.30
2023-03-06T18:57:41.326Z,21.30
2023-03-06T19:00:43.532Z,21.30
2023-03-06T19:03:45.675Z,21.30
2023-03-06T19:06:47.102Z,21.20
2023-03-06T19:09:48.526Z,21.20
2023-03-06T19:12:49.853Z,21.40
2023-03-06T19:15:56.154Z,20.90
2023-03-06T19:19:00.838Z,20.90
2023-03-06T19:22:02.340Z,20.90
2023-03-06T19:25:04.079Z,21.30
2023-03-06T19:28:05.688Z,20.80
2023-03-06T19:31:09.594Z,21.10
2023-03-06T19:34:11.102Z,20.80
2023-03-06T19:37:12.338Z,21.00
2023-03-06T19:40:15.127Z,20.90
2023-03-06T19:43:18.650Z,20.90
2023-03-06T19:46:22.857Z,21.10
2023-03-06T19:49:24.748Z,20.90
2023-03-06T19:52:26.350Z,20.70
2023-03-06T19:55:27.960Z,21.00
2023-03-06T19:58:29.386Z,20.90
2023-03-06T20:01:33.543Z,20.80
2023-03-06T20:04:35.188Z,20.90
2023-03-06T20:07:36.750Z,21.00
2023-03-06T20:10:52.704Z,21.00
2023-03-06T20:13:55.782Z,20.90
2023-03-06T20:16:57.849Z,20.80
2023-03-06T20:20:03.763Z,21.20
2023-03-06T20:23:05.701Z,20.80
2023-03-06T20:26:09.075Z,20.90
2023-03-06T20:29:11.225Z,20.90
2023-03-06T20:32:13.488Z,20.90
2023-03-06T20:35:15.075Z,20.80
2023-03-06T20:38:16.489Z,21.10
2023-03-06T20:41:20.041Z,20.90
2023-03-06T20:44:22.288Z,20.70
2023-03-06T20:47:24.463Z,20.80
2023-03-06T20:50:28.413Z,21.00
2023-03-06T20:53:30.313Z,20.80
2023-03-06T20:56:33.389Z,20.70
2023-03-06T20:59:34.930Z,20.70
2023-03-06T21:02:36.746Z,20.90
2023-03-06T21:05:38.026Z,20.80
2023-03-06T21:08:39.494Z,20.70
2023-03-06T21:11:40.917Z,20.90
2023-03-06T21:14:42.373Z,20.90
2023-03-06T21:17:44.697Z,20.50
2023-03-06T21:20:46.101Z,20.90
2023-03-06T21:23:48.078Z,20.70
2023-03-06T21:26:51.202Z,20.80
2023-03-06T21:29:52.692Z,20.70
2023-03-06T21:32:57.468Z,20.50
2023-03-06T21:35:58.937Z,20.90
2023-03-06T21:39:00.251Z,21.00
2023-03-06T21:42:03.128Z,20.90
2023-03-06T21:45:07.078Z,20.60
2023-03-06T21:48:09.670Z,20.80
2023-03-06T21:51:14.850Z,20.60
2023-03-06T21:54:16.226Z,20.40
2023-03-06T21:57:17.721Z,20.80
2023-03-06T22:00:22.342Z,20.60
2023-03-06T22:03:27.767Z,21.10
2023-03-06T22:06:30.535Z,20.60
2023-03-06T22:09:31.972Z,20.80
2023-03-06T22:12:33.507Z,20.60
2023-03-06T22:15:34.916Z,20.50
2023-03-06T22:18:37.196Z,20.50
2023-03-06T22:21:38.632Z,20.60
2023-03-06T22:24:40.342Z,20.80
2023-03-06T22:27:41.723Z,20.60
2023-03-06T22:30:43.172Z,20.60
2023-03-06T22:33:45.088Z,20.60
2023-03-06T22:36:47.662Z,20.80
2023-03-06T22:39:49.112Z,20.80
2023-03-06T22:42:50.637Z,20.60
2023-03-06T22:45:52.207Z,20.70
2023-03-06T22:48:56.722Z,20.40
2023-03-06T22:51:58.168Z,20.50
2023-03-06T22:54:59.416Z,20.70
2023-03-06T22:58:00.806Z,20.40
2023-03-06T23:01:04.591Z,20.50
2023-03-06T23:04:10.227Z,20.40
2023-03-06T23:07:12.868Z,20.40
2023-03-06T23:10:14.289Z,20.40
2023-03-06T23:13:25.810Z,20.80
2023-03-06T23:16:46.000Z,20.70
2023-03-06T23:20:09.403Z,20.80
2023-03-06T23:23:25.888Z,20.50
2023-03-06T23:26:28.468Z,20.60
2023-03-06T23:29:29.917Z,20.60
2023-03-06T23:32:32.131Z,20.70
2023-03-06T23:35:35.009Z,20.40
2023-03-06T23:38:37.443Z,20.60
2023-03-06T23:41:41.774Z,20.70
2023-03-06T23:44:43.151Z,20.30
2023-03-06T23:47:44.543Z,20.70
2023-03-06T23:50:47.734Z,20.80
2023-03-06T23:53:54.637Z,20.40
2023-03-06T23:56:58.209Z,20.40
2023-03-06T23:59:59.595Z,20.60
